sensor_id;sensor_type;location;lat;lon;timestamp;temperature;humidity
21590;DHT22;10957;50.968;6.828;2023-05-10T00:04:25;14.20;99.90
21590;DHT22;10957;50.968;6.828;2023-05-10T00:09:28;14.00;99.90
21590;DHT22;10957;50.968;6.828;2023-05-10T00:14:29;14.00;99.90
21590;DHT22;10957;50.968;6.828;2023-05-10T00:19:31;14.00;99.90
21590;DHT22;10957;50.968;6.828;2023-05-10T00:24:32;14.40;99.90
21590;DHT22;10957;50.968;6.828;2023-05-10T00:29:33;14.10;99.90
21590;DHT22;10957;50.968;6.828;2023-05-10T00:34:34;14.30;99.90
21590;DHT22;10957;50.968;6.828;2023-05-10T00:39:36;14.30;99.90
21590;DHT22;10957;50.968;6.828;2023-05-10T00:44:37;14.30;99.90
21590;DHT22;10957;50.968;6.828;2023-05-10T00:49:38;14.40;99.90
21590;DHT22;10957;50.968;6.828;2023-05-10T00:54:40;14.30;99.90
21590;DHT22;10957;50.968;6.828;2023-05-10T00:59:42;14.40;99.90
21590;DHT22;10957;50.968;6.828;2023-05-10T01:04:43;14.60;99.90
21590;DHT22;10957;50.968;6.828;2023-05-10T01:09:45;14.40;99.90
21590;DHT22;10957;50.968;6.828;2023-05-10T01:14:46;14.30;99.90
21590;DHT22;10957;50.968;6.828;2023-05-10T01:19:48;14.50;99.90
21590;DHT22;10957;50.968;6.828;2023-05-10T01:35:40;14.50;99.90
21590;DHT22;10957;50.968;6.828;2023-05-10T01:40:52;14.50;99.90
21590;DHT22;10957;50.968;6.828;2023-05-10T01:46:05;14.20;99.90
21590;DHT22;10957;50.968;6.828;2023-05-10T01:51:12;14.60;99.90
21590;DHT22;10957;50.968;6.828;2023-05-10T01:56:15;14.50;99.90
21590;DHT22;10957;50.968;6.828;2023-05-10T02:01:19;14.30;99.90
21590;DHT22;10957;50.968;6.828;2023-05-10T02:06:22;14.30;99.90
21590;DHT22;10957;50.968;6.828;2023-05-10T02:11:25;14.30;99.90
21590;DHT22;10957;50.968;6.828;2023-05-10T02:16:27;14.30;99.90
21590;DHT22;10957;50.968;6.828;2023-05-10T02:21:29;14.40;99.90
21590;DHT22;10957;50.968;6.828;2023-05-10T02:26:33;13.80;99.90
21590;DHT22;10957;50.968;6.828;2023-05-10T02:31:35;14.20;99.90
21590;DHT22;10957;50.968;6.828;2023-05-10T02:36:40;14.10;99.90
21590;DHT22;10957;50.968;6.828;2023-05-10T02:41:42;13.90;99.90
21590;DHT22;10957;50.968;6.828;2023-05-10T02:46:44;13.90;99.90
21590;DHT22;10957;50.968;6.828;2023-05-10T02:51:50;14.20;99.90
21590;DHT22;10957;50.968;6.828;2023-05-10T02:56:57;14.10;99.90
21590;DHT22;10957;50.968;6.828;2023-05-10T03:01:59;14.30;99.90
21590;DHT22;10957;50.968;6.828;2023-05-10T03:07:02;14.10;99.90
21590;DHT22;10957;50.968;6.828;2023-05-10T03:12:19;14.10;99.90
21590;DHT22;10957;50.968;6.828;2023-05-10T03:18:03;14.10;99.90
21590;DHT22;10957;50.968;6.828;2023-05-10T03:23:11;14.30;99.90
21590;DHT22;10957;50.968;6.828;2023-05-10T03:28:14;14.20;99.90
21590;DHT22;10957;50.968;6.828;2023-05-10T03:33:17;14.40;99.90
21590;DHT22;10957;50.968;6.828;2023-05-10T03:38:20;14.40;99.90
21590;DHT22;10957;50.968;6.828;2023-05-10T03:43:22;14.30;99.90
21590;DHT22;10957;50.968;6.828;2023-05-10T03:48:23;14.40;99.90
21590;DHT22;10957;50.968;6.828;2023-05-10T03:53:24;14.50;99.90
21590;DHT22;10957;50.968;6.828;2023-05-10T03:58:26;14.20;99.90
21590;DHT22;10957;50.968;6.828;2023-05-10T04:03:27;14.60;99.90
21590;DHT22;10957;50.968;6.828;2023-05-10T04:08:29;14.40;99.90
21590;DHT22;10957;50.968;6.828;2023-05-10T04:13:31;14.40;99.90
21590;DHT22;10957;50.968;6.828;2023-05-10T04:18:33;14.50;99.90
21590;DHT22;10957;50.968;6.828;2023-05-10T04:23:34;14.50;99.90
21590;DHT22;10957;50.968;6.828;2023-05-10T04:28:35;14.30;99.90
21590;DHT22;10957;50.968;6.828;2023-05-10T04:33:37;14.40;99.90
21590;DHT22;10957;50.968;6.828;2023-05-10T04:38:38;14.30;99.90
21590;DHT22;10957;50.968;6.828;2023-05-10T04:43:39;14.40;99.90
21590;DHT22;10957;50.968;6.828;2023-05-10T04:48:41;14.10;99.90
21590;DHT22;10957;50.968;6.828;2023-05-10T04:53:42;14.40;99.90
21590;DHT22;10957;50.968;6.828;2023-05-10T04:58:43;14.30;99.90
21590;DHT22;10957;50.968;6.828;2023-05-10T05:03:45;14.10;99.90
21590;DHT22;10957;50.968;6.828;2023-05-10T05:08:46;13.90;99.90
21590;DHT22;10957;50.968;6.828;2023-05-10T05:13:47;14.00;99.90
21590;DHT22;10957;50.968;6.828;2023-05-10T05:18:49;13.90;99.90
21590;DHT22;10957;50.968;6.828;2023-05-10T05:23:50;13.90;99.90
21590;DHT22;10957;50.968;6.828;2023-05-10T05:28:51;14.00;99.90
21590;DHT22;10957;50.968;6.828;2023-05-10T05:33:55;13.80;99.90
21590;DHT22;10957;50.968;6.828;2023-05-10T05:38:57;14.00;99.90
21590;DHT22;10957;50.968;6.828;2023-05-10T05:43:58;13.80;99.90
21590;DHT22;10957;50.968;6.828;2023-05-10T05:48:59;13.40;99.90
21590;DHT22;10957;50.968;6.828;2023-05-10T05:54:01;14.00;99.90
21590;DHT22;10957;50.968;6.828;2023-05-10T05:59:02;13.90;99.90
21590;DHT22;10957;50.968;6.828;2023-05-10T06:04:04;14.00;99.90
21590;DHT22;10957;50.968;6.828;2023-05-10T06:09:05;14.00;99.90
21590;DHT22;10957;50.968;6.828;2023-05-10T06:14:07;13.80;99.90
21590;DHT22;10957;50.968;6.828;2023-05-10T06:19:08;14.00;99.90
21590;DHT22;10957;50.968;6.828;2023-05-10T06:24:10;14.10;99.90
21590;DHT22;10957;50.968;6.828;2023-05-10T06:29:11;14.00;99.90
21590;DHT22;10957;50.968;6.828;2023-05-10T06:34:12;13.70;99.90
21590;DHT22;10957;50.968;6.828;2023-05-10T06:39:14;13.70;99.90
21590;DHT22;10957;50.968;6.828;2023-05-10T06:44:16;13.70;99.90
21590;DHT22;10957;50.968;6.828;2023-05-10T06:49:17;13.90;99.90
21590;DHT22;10957;50.968;6.828;2023-05-10T06:54:19;13.80;99.90
21590;DHT22;10957;50.968;6.828;2023-05-10T06:59:21;14.20;99.90
21590;DHT22;10957;50.968;6.828;2023-05-10T07:04:22;14.10;99.90
21590;DHT22;10957;50.968;6.828;2023-05-10T07:09:23;14.10;99.90
21590;DHT22;10957;50.968;6.828;2023-05-10T07:14:25;14.30;99.90
21590;DHT22;10957;50.968;6.828;2023-05-10T07:19:26;14.30;99.90
21590;DHT22;10957;50.968;6.828;2023-05-10T07:24:27;14.30;99.90
21590;DHT22;10957;50.968;6.828;2023-05-10T07:29:29;14.30;99.90
21590;DHT22;10957;50.968;6.828;2023-05-10T07:34:30;14.20;99.90
21590;DHT22;10957;50.968;6.828;2023-05-10T07:39:32;14.30;99.90
21590;DHT22;10957;50.968;6.828;2023-05-10T07:44:33;14.20;99.90
21590;DHT22;10957;50.968;6.828;2023-05-10T07:49:35;14.30;99.90
21590;DHT22;10957;50.968;6.828;2023-05-10T07:54:37;14.40;99.90
21590;DHT22;10957;50.968;6.828;2023-05-10T07:59:39;14.60;99.90
21590;DHT22;10957;50.968;6.828;2023-05-10T08:04:40;14.60;99.90
21590;DHT22;10957;50.968;6.828;2023-05-10T08:09:41;14.50;99.90
21590;DHT22;10957;50.968;6.828;2023-05-10T08:14:43;14.80;99.90
21590;DHT22;10957;50.968;6.828;2023-05-10T08:19:44;15.00;99.90
21590;DHT22;10957;50.968;6.828;2023-05-10T08:24:45;15.00;99.90
21590;DHT22;10957;50.968;6.828;2023-05-10T08:29:46;14.60;99.90
21590;DHT22;10957;50.968;6.828;2023-05-10T08:34:47;14.50;99.90
21590;DHT22;10957;50.968;6.828;2023-05-10T08:39:49;14.80;99.90
21590;DHT22;10957;50.968;6.828;2023-05-10T08:44:50;15.00;99.90
21590;DHT22;10957;50.968;6.828;2023-05-10T08:49:54;14.60;99.90
21590;DHT22;10957;50.968;6.828;2023-05-10T08:54:56;14.80;99.90
21590;DHT22;10957;50.968;6.828;2023-05-10T08:59:59;15.40;99.90
21590;DHT22;10957;50.968;6.828;2023-05-10T09:05:01;15.30;99.90
21590;DHT22;10957;50.968;6.828;2023-05-10T09:10:05;15.30;99.90
21590;DHT22;10957;50.968;6.828;2023-05-10T09:15:07;15.30;99.90
21590;DHT22;10957;50.968;6.828;2023-05-10T09:20:10;15.30;98.90
21590;DHT22;10957;50.968;6.828;2023-05-10T09:25:13;14.30;1.00
21590;DHT22;10957;50.968;6.828;2023-05-10T09:35:30;14.00;1.00
21590;DHT22;10957;50.968;6.828;2023-05-10T09:40:39;14.50;1.00
21590;DHT22;10957;50.968;6.828;2023-05-10T09:45:41;14.70;1.00
21590;DHT22;10957;50.968;6.828;2023-05-10T09:50:42;14.80;1.00
21590;DHT22;10957;50.968;6.828;2023-05-10T09:55:45;14.80;1.00
21590;DHT22;10957;50.968;6.828;2023-05-10T10:00:47;15.20;1.00
21590;DHT22;10957;50.968;6.828;2023-05-10T10:05:52;15.10;99.90
21590;DHT22;10957;50.968;6.828;2023-05-10T10:10:56;15.10;99.90
21590;DHT22;10957;50.968;6.828;2023-05-10T10:15:58;14.90;99.90
21590;DHT22;10957;50.968;6.828;2023-05-10T10:20:59;15.00;99.90
21590;DHT22;10957;50.968;6.828;2023-05-10T10:26:03;15.00;99.90
21590;DHT22;10957;50.968;6.828;2023-05-10T10:31:21;15.40;99.90
21590;DHT22;10957;50.968;6.828;2023-05-10T10:36:24;15.70;99.90
21590;DHT22;10957;50.968;6.828;2023-05-10T10:41:32;15.90;99.90
21590;DHT22;10957;50.968;6.828;2023-05-10T10:46:34;16.50;99.90
21590;DHT22;10957;50.968;6.828;2023-05-10T10:51:39;15.70;99.90
21590;DHT22;10957;50.968;6.828;2023-05-10T10:57:12;15.80;99.90
21590;DHT22;10957;50.968;6.828;2023-05-10T11:02:33;15.60;99.90
21590;DHT22;10957;50.968;6.828;2023-05-10T11:07:35;15.30;99.90
21590;DHT22;10957;50.968;6.828;2023-05-10T11:12:51;15.60;99.90
21590;DHT22;10957;50.968;6.828;2023-05-10T11:17:52;15.80;99.90
21590;DHT22;10957;50.968;6.828;2023-05-10T11:22:55;15.70;99.90
21590;DHT22;10957;50.968;6.828;2023-05-10T11:27:56;15.70;92.00
21590;DHT22;10957;50.968;6.828;2023-05-10T11:32:57;16.10;89.10
21590;DHT22;10957;50.968;6.828;2023-05-10T11:37:59;16.20;1.00
21590;DHT22;10957;50.968;6.828;2023-05-10T11:43:00;16.70;24.70
21590;DHT22;10957;50.968;6.828;2023-05-10T11:48:02;16.50;1.00
21590;DHT22;10957;50.968;6.828;2023-05-10T11:53:04;16.50;1.00
21590;DHT22;10957;50.968;6.828;2023-05-10T11:58:05;16.50;1.00
21590;DHT22;10957;50.968;6.828;2023-05-10T12:03:06;16.40;1.00
21590;DHT22;10957;50.968;6.828;2023-05-10T12:08:14;16.70;1.00
21590;DHT22;10957;50.968;6.828;2023-05-10T12:13:17;16.60;1.00
21590;DHT22;10957;50.968;6.828;2023-05-10T12:18:23;17.00;1.00
21590;DHT22;10957;50.968;6.828;2023-05-10T12:23:26;16.50;1.00
21590;DHT22;10957;50.968;6.828;2023-05-10T12:28:30;16.40;1.00
21590;DHT22;10957;50.968;6.828;2023-05-10T12:33:38;16.40;1.00
21590;DHT22;10957;50.968;6.828;2023-05-10T12:38:44;16.70;1.00
21590;DHT22;10957;50.968;6.828;2023-05-10T12:43:48;16.50;1.00
21590;DHT22;10957;50.968;6.828;2023-05-10T12:48:50;17.10;1.00
21590;DHT22;10957;50.968;6.828;2023-05-10T12:53:55;17.00;1.00
21590;DHT22;10957;50.968;6.828;2023-05-10T12:58:57;17.00;1.00
21590;DHT22;10957;50.968;6.828;2023-05-10T13:03:58;16.90;1.00
21590;DHT22;10957;50.968;6.828;2023-05-10T13:09:02;16.80;1.00
21590;DHT22;10957;50.968;6.828;2023-05-10T13:14:03;17.50;1.00
21590;DHT22;10957;50.968;6.828;2023-05-10T13:19:04;17.50;1.00
21590;DHT22;10957;50.968;6.828;2023-05-10T13:24:06;17.30;1.00
21590;DHT22;10957;50.968;6.828;2023-05-10T13:29:07;17.20;1.00
21590;DHT22;10957;50.968;6.828;2023-05-10T13:34:09;17.20;1.00
21590;DHT22;10957;50.968;6.828;2023-05-10T13:39:10;17.30;1.00
21590;DHT22;10957;50.968;6.828;2023-05-10T13:44:15;17.10;1.00
21590;DHT22;10957;50.968;6.828;2023-05-10T13:49:16;17.30;1.00
21590;DHT22;10957;50.968;6.828;2023-05-10T13:54:17;17.60;1.00
21590;DHT22;10957;50.968;6.828;2023-05-10T13:59:20;17.50;1.00
21590;DHT22;10957;50.968;6.828;2023-05-10T14:04:22;17.90;1.00
21590;DHT22;10957;50.968;6.828;2023-05-10T14:09:23;17.50;1.00
21590;DHT22;10957;50.968;6.828;2023-05-10T14:14:24;17.90;1.00
21590;DHT22;10957;50.968;6.828;2023-05-10T14:19:26;18.70;1.00
21590;DHT22;10957;50.968;6.828;2023-05-10T14:24:28;18.30;1.00
21590;DHT22;10957;50.968;6.828;2023-05-10T14:29:29;18.70;1.00
21590;DHT22;10957;50.968;6.828;2023-05-10T14:34:30;18.20;1.00
21590;DHT22;10957;50.968;6.828;2023-05-10T14:39:31;18.00;1.00
21590;DHT22;10957;50.968;6.828;2023-05-10T14:44:34;17.40;1.00
21590;DHT22;10957;50.968;6.828;2023-05-10T14:49:35;17.00;1.00
21590;DHT22;10957;50.968;6.828;2023-05-10T14:54:36;17.00;1.00
21590;DHT22;10957;50.968;6.828;2023-05-10T14:59:38;16.90;1.00
21590;DHT22;10957;50.968;6.828;2023-05-10T15:04:39;17.30;1.00
21590;DHT22;10957;50.968;6.828;2023-05-10T15:09:40;18.50;1.00
21590;DHT22;10957;50.968;6.828;2023-05-10T15:14:41;18.00;1.00
21590;DHT22;10957;50.968;6.828;2023-05-10T15:19:43;17.70;1.00
21590;DHT22;10957;50.968;6.828;2023-05-10T15:24:44;17.70;1.00
21590;DHT22;10957;50.968;6.828;2023-05-10T15:29:45;17.40;1.00
21590;DHT22;10957;50.968;6.828;2023-05-10T15:34:47;17.40;1.00
21590;DHT22;10957;50.968;6.828;2023-05-10T15:39:48;17.30;1.00
21590;DHT22;10957;50.968;6.828;2023-05-10T15:44:49;17.30;1.00
21590;DHT22;10957;50.968;6.828;2023-05-10T15:49:51;16.90;1.00
21590;DHT22;10957;50.968;6.828;2023-05-10T15:54:52;16.80;1.00
21590;DHT22;10957;50.968;6.828;2023-05-10T15:59:53;16.70;1.00
21590;DHT22;10957;50.968;6.828;2023-05-10T16:04:56;16.40;1.00
21590;DHT22;10957;50.968;6.828;2023-05-10T16:09:58;16.30;1.00
21590;DHT22;10957;50.968;6.828;2023-05-10T16:14:59;16.50;1.00
21590;DHT22;10957;50.968;6.828;2023-05-10T16:20:00;16.50;1.00
21590;DHT22;10957;50.968;6.828;2023-05-10T16:25:02;16.60;1.00
21590;DHT22;10957;50.968;6.828;2023-05-10T16:30:04;16.50;1.00
21590;DHT22;10957;50.968;6.828;2023-05-10T16:35:07;16.60;1.00
21590;DHT22;10957;50.968;6.828;2023-05-10T16:40:08;16.50;1.00
21590;DHT22;10957;50.968;6.828;2023-05-10T16:45:10;16.60;1.00
21590;DHT22;10957;50.968;6.828;2023-05-10T16:50:12;16.50;1.00
21590;DHT22;10957;50.968;6.828;2023-05-10T16:55:14;16.40;1.00
21590;DHT22;10957;50.968;6.828;2023-05-10T17:00:16;16.40;1.00
21590;DHT22;10957;50.968;6.828;2023-05-10T17:05:17;16.20;1.00
21590;DHT22;10957;50.968;6.828;2023-05-10T17:10:18;16.10;1.00
21590;DHT22;10957;50.968;6.828;2023-05-10T17:15:20;16.10;1.00
21590;DHT22;10957;50.968;6.828;2023-05-10T17:20:21;15.90;1.00
21590;DHT22;10957;50.968;6.828;2023-05-10T17:25:23;16.10;1.00
21590;DHT22;10957;50.968;6.828;2023-05-10T17:30:24;16.20;1.00
21590;DHT22;10957;50.968;6.828;2023-05-10T17:35:28;16.10;1.00
21590;DHT22;10957;50.968;6.828;2023-05-10T17:40:31;15.90;1.00
21590;DHT22;10957;50.968;6.828;2023-05-10T17:45:32;15.70;1.00
21590;DHT22;10957;50.968;6.828;2023-05-10T17:50:33;15.70;1.00
21590;DHT22;10957;50.968;6.828;2023-05-10T17:55:35;15.50;1.00
21590;DHT22;10957;50.968;6.828;2023-05-10T18:00:39;15.40;1.00
21590;DHT22;10957;50.968;6.828;2023-05-10T18:05:40;15.20;1.00
21590;DHT22;10957;50.968;6.828;2023-05-10T18:10:42;15.10;1.00
21590;DHT22;10957;50.968;6.828;2023-05-10T18:15:43;14.50;1.00
21590;DHT22;10957;50.968;6.828;2023-05-10T18:20:44;14.90;1.00
21590;DHT22;10957;50.968;6.828;2023-05-10T18:25:46;14.90;1.00
21590;DHT22;10957;50.968;6.828;2023-05-10T18:30:47;14.70;1.00
21590;DHT22;10957;50.968;6.828;2023-05-10T18:35:49;14.40;1.00
21590;DHT22;10957;50.968;6.828;2023-05-10T18:40:50;14.30;1.00
21590;DHT22;10957;50.968;6.828;2023-05-10T18:45:51;14.30;1.00
21590;DHT22;10957;50.968;6.828;2023-05-10T18:50:53;14.20;1.00
21590;DHT22;10957;50.968;6.828;2023-05-10T18:55:55;14.00;1.00
21590;DHT22;10957;50.968;6.828;2023-05-10T19:00:57;14.20;6.40
21590;DHT22;10957;50.968;6.828;2023-05-10T19:05:59;14.20;9.80
21590;DHT22;10957;50.968;6.828;2023-05-10T19:11:00;14.20;18.00
21590;DHT22;10957;50.968;6.828;2023-05-10T19:16:09;14.20;24.20
21590;DHT22;10957;50.968;6.828;2023-05-10T19:21:11;14.20;66.80
21590;DHT22;10957;50.968;6.828;2023-05-10T19:26:12;14.10;74.80
21590;DHT22;10957;50.968;6.828;2023-05-10T19:31:13;14.00;99.90
21590;DHT22;10957;50.968;6.828;2023-05-10T19:36:14;13.70;99.90
21590;DHT22;10957;50.968;6.828;2023-05-10T19:41:16;13.80;99.90
21590;DHT22;10957;50.968;6.828;2023-05-10T19:46:17;13.90;99.90
21590;DHT22;10957;50.968;6.828;2023-05-10T19:51:18;13.80;99.90
21590;DHT22;10957;50.968;6.828;2023-05-10T19:56:20;13.60;99.90
21590;DHT22;10957;50.968;6.828;2023-05-10T20:01:21;13.50;99.90
21590;DHT22;10957;50.968;6.828;2023-05-10T20:06:23;13.40;99.90
21590;DHT22;10957;50.968;6.828;2023-05-10T20:11:25;13.30;99.90
21590;DHT22;10957;50.968;6.828;2023-05-10T20:16:26;13.20;99.90
21590;DHT22;10957;50.968;6.828;2023-05-10T20:21:27;13.50;99.90
21590;DHT22;10957;50.968;6.828;2023-05-10T20:26:28;13.50;99.90
21590;DHT22;10957;50.968;6.828;2023-05-10T20:31:30;13.10;99.90
21590;DHT22;10957;50.968;6.828;2023-05-10T20:36:31;13.30;99.90
21590;DHT22;10957;50.968;6.828;2023-05-10T20:41:32;13.20;99.90
21590;DHT22;10957;50.968;6.828;2023-05-10T20:46:33;13.10;99.90
21590;DHT22;10957;50.968;6.828;2023-05-10T20:51:35;13.00;99.90
21590;DHT22;10957;50.968;6.828;2023-05-10T20:56:36;13.00;99.90
21590;DHT22;10957;50.968;6.828;2023-05-10T21:01:37;13.20;99.90
21590;DHT22;10957;50.968;6.828;2023-05-10T21:06:38;13.00;99.90
21590;DHT22;10957;50.968;6.828;2023-05-10T21:11:40;13.00;99.90
21590;DHT22;10957;50.968;6.828;2023-05-10T21:16:41;13.10;1.00
21590;DHT22;10957;50.968;6.828;2023-05-10T21:21:42;13.20;1.00
21590;DHT22;10957;50.968;6.828;2023-05-10T21:26:44;13.00;1.00
21590;DHT22;10957;50.968;6.828;2023-05-10T21:31:45;12.90;1.00
21590;DHT22;10957;50.968;6.828;2023-05-10T21:36:46;13.10;1.00
21590;DHT22;10957;50.968;6.828;2023-05-10T21:41:48;13.00;1.00
21590;DHT22;10957;50.968;6.828;2023-05-10T21:46:49;13.00;1.00
21590;DHT22;10957;50.968;6.828;2023-05-10T21:51:51;13.10;1.00
21590;DHT22;10957;50.968;6.828;2023-05-10T21:56:52;13.30;1.00
21590;DHT22;10957;50.968;6.828;2023-05-10T22:01:53;13.10;1.00
21590;DHT22;10957;50.968;6.828;2023-05-10T22:06:55;13.00;1.00
21590;DHT22;10957;50.968;6.828;2023-05-10T22:11:56;13.30;1.00
21590;DHT22;10957;50.968;6.828;2023-05-10T22:16:57;13.00;1.00
21590;DHT22;10957;50.968;6.828;2023-05-10T22:21:58;13.10;1.00
21590;DHT22;10957;50.968;6.828;2023-05-10T22:27:00;13.10;1.00
21590;DHT22;10957;50.968;6.828;2023-05-10T22:32:03;13.30;1.00
21590;DHT22;10957;50.968;6.828;2023-05-10T22:37:06;13.10;1.00
21590;DHT22;10957;50.968;6.828;2023-05-10T22:42:08;12.90;1.00
21590;DHT22;10957;50.968;6.828;2023-05-10T22:47:09;13.30;1.00
21590;DHT22;10957;50.968;6.828;2023-05-10T22:52:10;13.10;1.00
21590;DHT22;10957;50.968;6.828;2023-05-10T22:57:12;13.20;1.00
21590;DHT22;10957;50.968;6.828;2023-05-10T23:02:16;13.20;1.00
21590;DHT22;10957;50.968;6.828;2023-05-10T23:07:17;13.50;1.00
21590;DHT22;10957;50.968;6.828;2023-05-10T23:12:19;13.20;1.00
21590;DHT22;10957;50.968;6.828;2023-05-10T23:17:20;13.40;1.00
21590;DHT22;10957;50.968;6.828;2023-05-10T23:22:21;13.30;1.00
21590;DHT22;10957;50.968;6.828;2023-05-10T23:27:23;13.30;1.00
21590;DHT22;10957;50.968;6.828;2023-05-10T23:32:24;13.60;1.00
21590;DHT22;10957;50.968;6.828;2023-05-10T23:37:25;13.40;1.00
21590;DHT22;10957;50.968;6.828;2023-05-10T23:42:27;13.40;1.00
21590;DHT22;10957;50.968;6.828;2023-05-10T23:47:29;13.30;1.00
21590;DHT22;10957;50.968;6.828;2023-05-10T23:52:30;13.20;1.00
21590;DHT22;10957;50.968;6.828;2023-05-10T23:57:31;13.00;1.00
